Time;durP1;ratioP1;P1;durP2;ratioP2;P2;SDS_P1;SDS_P2;PMS_P1;PMS_P2;Temp;Humidity;BMP_temperature;BMP_pressure;BME280_temperature;BME280_humidity;BME280_pressure;Samples;Min_cycle;Max_cycle;Signal;HPM_P1;HPM_P2
2022/11/02 00:00:22;;;;;;;;;;;;;;;;;;4974591;28;7057;-85
2022/11/02 00:02:47;;;;;;;;;;;;;;;;;;4975449;28;8343;-85
2022/11/02 00:05:14;;;;;;;;;;;;;;;;;;4974918;28;8405;-84
2022/11/02 00:07:42;;;;;;;;;;;;;;;;;;4974680;28;7172;-84
2022/11/02 00:10:09;;;;;;;;;;;;;;;;;;4974999;28;8404;-85
2022/11/02 00:12:35;;;;;;;;;;;;;;;;;;4974645;28;7180;-85
2022/11/02 00:15:00;;;;;;;;;;;;;;;;;;4974631;28;8416;-86
2022/11/02 00:17:28;;;;;;;;;;;;;;;;;;4974687;28;7057;-85
2022/11/02 00:19:54;;;;;;;;;;;;;;;;;;4975018;28;8303;-85
2022/11/02 00:22:20;;;;;;;;;;;;;;;;;;4974711;28;8477;-85
2022/11/02 00:24:45;;;;;;;;;;;;;;;;;;4975252;28;7085;-86
2022/11/02 00:27:11;;;;;;;;;;;;;;;;;;4974666;28;7175;-85
2022/11/02 00:29:36;;;;;;;;;;;;;;;;;;4974671;28;7604;-84
2022/11/02 00:32:02;;;;;;;;;;;;;;;;;;4974829;28;8599;-86
2022/11/02 00:34:27;;;;;;;;;;;;;;;;;;4974962;28;8295;-85
2022/11/02 00:36:53;;;;;;;;;;;;;;;;;;4974546;28;7158;-85
2022/11/02 00:39:18;;;;;;;;;;;;;;;;;;4974352;28;7021;-85
2022/11/02 00:41:44;;;;;;;;;;;;;;;;;;4974392;28;8660;-85
2022/11/02 00:44:09;;;;;;;;;;;;;;;;;;4975085;28;7120;-86
2022/11/02 00:46:35;;;;;;;;;;;;;;;;;;4975085;28;7044;-85
2022/11/02 00:49:00;;;;;;;;;;;;;;;;;;4974870;28;8585;-85
2022/11/02 00:51:25;;;;;;;;;;;;;;;;;;4974533;28;8731;-85
2022/11/02 00:53:51;;;;;;;;;;;;;;;;;;4974803;28;8593;-84
2022/11/02 00:56:16;;;;;;;;;;;;;;;;;;4974011;28;8313;-84
2022/11/02 00:58:42;;;;;;;;;;;;;;;;;;4974744;28;7283;-85
2022/11/02 01:01:07;;;;;;;;;;;;;;;;;;4974573;28;8580;-85
2022/11/02 01:03:33;;;;;;;;;;;;;;;;;;4974172;28;7355;-85
2022/11/02 01:05:59;;;;;;;;;;;;;;;;;;4974786;28;8277;-85
2022/11/02 01:08:24;;;;;;;;;;;;;;;;;;4976752;28;7146;-84
2022/11/02 01:10:50;;;;;;;;;;;;;;;;;;4977560;28;7420;-85
2022/11/02 01:13:16;;;;;;;;;;;;;;;;;;4977454;28;7273;-84
2022/11/02 01:15:42;;;;;;;;;;;;;;;;;;4977942;28;8520;-85
2022/11/02 01:18:08;;;;;;;;;;;;;;;;;;4977828;28;7195;-85
2022/11/02 01:20:33;;;;;;;;;;;;;;;;;;4977333;28;7176;-85
2022/11/02 01:22:59;;;;;;;;;;;;;;;;;;4977436;28;7089;-85
2022/11/02 01:25:24;;;;;;;;;;;;;;;;;;4977198;28;7069;-85
2022/11/02 01:27:50;;;;;;;;;;;;;;;;;;4977620;28;7158;-85
2022/11/02 01:30:15;;;;;;;;;;;;;;;;;;4977390;28;8551;-84
2022/11/02 01:32:41;;;;;;;;;;;;;;;;;;4977299;28;7171;-85
2022/11/02 01:35:06;;;;;;;;;;;;;;;;;;4977901;28;8395;-84
2022/11/02 01:37:32;;;;;;;;;;;;;;;;;;4977179;28;8456;-85
2022/11/02 01:39:57;;;;;;;;;;;;;;;;;;4977433;28;8578;-85
2022/11/02 01:42:24;;;;;;;;;;;;;;;;;;4977316;28;7015;-85
2022/11/02 01:44:50;;;;;;;;;;;;;;;;;;4977123;28;7278;-84
2022/11/02 01:47:28;;;;;;;;;;;;;;;;;;4976961;28;8431;-85
2022/11/02 01:50:06;;;;;;;;;;;;;;;;;;4977562;28;8729;-85
2022/11/02 01:52:36;;;;;;;;;;;;;;;;;;4977129;28;8993;-84
2022/11/02 01:55:04;;;;;;;;;;;;;;;;;;4976579;28;8430;-84
2022/11/02 01:57:32;;;;;;;;;;;;;;;;;;4977298;28;7066;-85
2022/11/02 02:00:04;;;;;;;;;;;;;;;;;;4977037;28;8476;-85
2022/11/02 02:02:31;;;;;;;;;;;;;;;;;;4976772;28;8466;-85
2022/11/02 02:05:08;;;;;;;;;;;;;;;;;;4977075;28;8456;-84
2022/11/02 02:07:37;;;;;;;;;;;;;;;;;;4977293;28;8460;-85
2022/11/02 02:10:03;;;;;;;;;;;;;;;;;;4976791;28;8509;-84
2022/11/02 02:12:30;;;;;;;;;;;;;;;;;;4976653;28;7040;-84
2022/11/02 02:14:57;;;;;;;;;;;;;;;;;;4976447;28;7441;-84
2022/11/02 02:17:32;;;;;;;;;;;;;;;;;;4976620;28;7047;-85
2022/11/02 02:19:57;;;;;;;;;;;;;;;;;;4975200;28;7010;-85
2022/11/02 02:22:26;;;;;;;;;;;;;;;;;;4976192;28;7026;-84
2022/11/02 02:25:14;;;;;;;;;;;;;;;;;;4976873;28;7097;-84
2022/11/02 02:27:46;;;;;;;;;;;;;;;;;;4976464;28;8291;-85
2022/11/02 02:30:12;;;;;;;;;;;;;;;;;;4976273;28;7383;-85
2022/11/02 02:32:37;;;;;;;;;;;;;;;;;;4976401;28;8715;-85
2022/11/02 02:35:11;;;;;;;;;;;;;;;;;;4975879;28;7413;-84
2022/11/02 02:37:52;;;;;;;;;;;;;;;;;;4976075;28;7181;-85
2022/11/02 02:40:22;;;;;;;;;;;;;;;;;;4976421;28;8427;-85
2022/11/02 02:42:59;;;;;;;;;;;;;;;;;;4976198;28;8504;-85
2022/11/02 02:45:31;;;;;;;;;;;;;;;;;;4975648;28;7515;-84
2022/11/02 02:48:05;;;;;;;;;;;;;;;;;;4976127;28;8314;-85
2022/11/02 02:50:39;;;;;;;;;;;;;;;;;;4976011;28;7316;-85
2022/11/02 02:53:06;;;;;;;;;;;;;;;;;;4976595;28;8792;-85
2022/11/02 02:55:37;;;;;;;;;;;;;;;;;;4975560;28;7270;-84
2022/11/02 02:58:06;;;;;;;;;;;;;;;;;;4976174;28;8884;-85
2022/11/02 03:00:34;;;;;;;;;;;;;;;;;;4976135;28;7014;-85
2022/11/02 03:03:04;;;;;;;;;;;;;;;;;;4975563;28;7179;-86
2022/11/02 03:05:32;;;;;;;;;;;;;;;;;;4975121;28;7170;-85
2022/11/02 03:08:08;;;;;;;;;;;;;;;;;;4976563;28;7041;-84
2022/11/02 03:10:41;;;;;;;;;;;;;;;;;;4975286;28;8349;-85
2022/11/02 03:13:26;;;;;;;;;;;;;;;;;;4975801;28;8471;-84
2022/11/02 03:16:05;;;;;;;;;;;;;;;;;;4975293;28;7193;-85
2022/11/02 03:18:43;;;;;;;;;;;;;;;;;;4976265;28;7058;-84
2022/11/02 03:21:20;;;;;;;;;;;;;;;;;;4975575;28;8741;-86
2022/11/02 03:24:00;;;;;;;;;;;;;;;;;;4975100;28;7067;-85
2022/11/02 03:26:25;;;;;;;;;;;;;;;;;;4975590;28;7197;-85
2022/11/02 03:28:57;;;;;;;;;;;;;;;;;;4975670;28;8432;-86
2022/11/02 03:31:25;;;;;;;;;;;;;;;;;;4974816;28;8422;-86
2022/11/02 03:34:03;;;;;;;;;;;;;;;;;;4975509;28;8557;-86
2022/11/02 03:36:49;;;;;;;;;;;;;;;;;;4975671;28;8680;-85
2022/11/02 03:39:18;;;;;;;;;;;;;;;;;;4984124;28;7060;-86
2022/11/02 03:41:46;;;;;;;;;;;;;;;;;;4963383;28;8302;-85
2022/11/02 03:44:16;;;;;;;;;;;;;;;;;;4936752;29;7210;-86
2022/11/02 03:46:43;;;;;;;;;;;;;;;;;;4936631;29;8752;-86
2022/11/02 03:49:14;;;;;;;;;;;;;;;;;;4936998;29;7167;-86
2022/11/02 03:51:42;;;;;;;;;;;;;;;;;;4936843;29;8372;-86
2022/11/02 03:54:13;;;;;;;;;;;;;;;;;;4936576;29;7030;-85
2022/11/02 03:56:39;;;;;;;;;;;;;;;;;;4936529;29;7199;-86
2022/11/02 03:59:04;;;;;;;;;;;;;;;;;;4951141;28;7153;-86
2022/11/02 04:01:36;;;;;;;;;;;;;;;;;;4974678;28;7169;-85
2022/11/02 04:04:03;;;;;;;;;;;;;;;;;;4975090;28;8444;-85
2022/11/02 04:06:29;;;;;;;;;;;;;;;;;;4974610;28;7244;-86
2022/11/02 04:08:55;;;;;;;;;;;;;;;;;;4975043;28;8423;-86
2022/11/02 04:19:26;;;;;;;;;;;;;;;;;;4956097;29;6978;-87
2022/11/02 04:19:34;;;;;;;;;;;;;;;;;;4955638;29;7277;-86
2022/11/02 04:27:28;;;;;;;;;;;;;;;;;;4955409;29;7095;-86
2022/11/02 04:29:53;;;;;;;;;;;;;;;;;;4953945;28;7170;-85
2022/11/02 04:35:03;;;;;;;;;;;;;;;;;;4954662;29;6826;-86
2022/11/02 04:40:13;;;;;;;;;;;;;;;;;;4954885;29;6832;-86
2022/11/02 04:42:38;;;;;;;;;;;;;;;;;;4954623;28;8322;-85
2022/11/02 04:45:04;;;;;;;;;;;;;;;;;;4957585;28;7021;-86
2022/11/02 04:47:29;;;;;;;;;;;;;;;;;;4957382;28;7182;-85
2022/11/02 04:49:55;;;;;;;;;;;;;;;;;;4957809;28;8385;-85
2022/11/02 04:52:20;;;;;;;;;;;;;;;;;;4957640;28;8427;-85
2022/11/02 04:54:45;;;;;;;;;;;;;;;;;;4957204;28;7442;-85
2022/11/02 04:57:11;;;;;;;;;;;;;;;;;;4957611;28;7100;-85
2022/11/02 04:59:36;;;;;;;;;;;;;;;;;;4957400;28;7018;-85
2022/11/02 05:02:02;;;;;;;;;;;;;;;;;;4957576;28;7244;-85
2022/11/02 05:04:27;;;;;;;;;;;;;;;;;;4957564;28;7121;-84
2022/11/02 05:06:53;;;;;;;;;;;;;;;;;;4957368;28;8430;-85
2022/11/02 05:09:18;;;;;;;;;;;;;;;;;;4957057;28;7052;-85
2022/11/02 05:11:43;;;;;;;;;;;;;;;;;;4957220;28;7059;-85
2022/11/02 05:14:09;;;;;;;;;;;;;;;;;;4957191;28;8303;-85
2022/11/02 05:16:34;;;;;;;;;;;;;;;;;;4957041;28;7301;-85
2022/11/02 05:19:00;;;;;;;;;;;;;;;;;;4957104;28;7296;-85
2022/11/02 05:21:25;;;;;;;;;;;;;;;;;;4957096;28;7006;-85
2022/11/02 05:23:50;;;;;;;;;;;;;;;;;;4957015;28;8625;-85
2022/11/02 05:26:16;;;;;;;;;;;;;;;;;;4956760;28;8428;-85
2022/11/02 05:28:42;;;;;;;;;;;;;;;;;;4957146;28;7149;-85
2022/11/02 05:31:07;;;;;;;;;;;;;;;;;;4960758;28;8924;-85
2022/11/02 05:33:33;;;;;;;;;;;;;;;;;;4957534;28;7041;-85
2022/11/02 05:35:59;;;;;;;;;;;;;;;;;;4958042;28;7156;-85
2022/11/02 05:38:26;;;;;;;;;;;;;;;;;;4959145;28;7163;-85
2022/11/02 05:40:52;;;;;;;;;;;;;;;;;;4958170;28;8380;-86
2022/11/02 05:43:18;;;;;;;;;;;;;;;;;;4957798;28;8463;-86
2022/11/02 05:45:43;;;;;;;;;;;;;;;;;;4957810;28;7189;-86
2022/11/02 05:48:09;;;;;;;;;;;;;;;;;;4957541;28;8308;-86
2022/11/02 05:50:34;;;;;;;;;;;;;;;;;;4957305;28;8292;-85
2022/11/02 05:53:00;;;;;;;;;;;;;;;;;;4956510;28;8412;-85
2022/11/02 05:55:25;;;;;;;;;;;;;;;;;;4954922;28;7385;-85
2022/11/02 05:57:52;;;;;;;;;;;;;;;;;;4955321;28;8475;-84
2022/11/02 06:00:19;;;;;;;;;;;;;;;;;;4956012;28;7439;-85
2022/11/02 06:02:44;;;;;;;;;;;;;;;;;;4953922;28;8349;-85
2022/11/02 06:05:10;;;;;;;;;;;;;;;;;;4956403;28;8467;-85
2022/11/02 06:07:35;;;;;;;;;;;;;;;;;;4956247;28;8402;-85
2022/11/02 06:10:01;;;;;;;;;;;;;;;;;;4956308;28;8404;-85
2022/11/02 06:12:27;;;;;;;;;;;;;;;;;;4956132;28;7212;-84
2022/11/02 06:14:52;;;;;;;;;;;;;;;;;;4955677;28;8350;-85
2022/11/02 06:17:18;;;;;;;;;;;;;;;;;;4955910;28;8353;-85
2022/11/02 06:19:43;;;;;;;;;;;;;;;;;;4956084;28;8520;-85
2022/11/02 06:22:09;;;;;;;;;;;;;;;;;;4955559;28;7151;-85
2022/11/02 06:24:34;;;;;;;;;;;;;;;;;;4956042;28;8468;-86
2022/11/02 06:26:59;;;;;;;;;;;;;;;;;;4956035;28;8311;-85
2022/11/02 06:29:25;;;;;;;;;;;;;;;;;;4957385;28;8406;-85
2022/11/02 06:31:50;;;;;;;;;;;;;;;;;;4953026;28;7060;-85
2022/11/02 06:34:16;;;;;;;;;;;;;;;;;;4943626;28;8504;-87
2022/11/02 06:36:41;;;;;;;;;;;;;;;;;;4938422;28;8298;-86
2022/11/02 06:39:07;;;;;;;;;;;;;;;;;;4956968;28;8418;-86
2022/11/02 06:41:32;;;;;;;;;;;;;;;;;;4957069;28;8410;-87
2022/11/02 06:43:57;;;;;;;;;;;;;;;;;;4956705;28;7355;-86
2022/11/02 06:46:23;;;;;;;;;;;;;;;;;;4956827;28;7241;-86
2022/11/02 06:48:48;;;;;;;;;;;;;;;;;;4956354;28;8394;-86
2022/11/02 06:51:14;;;;;;;;;;;;;;;;;;4956917;28;7250;-86
2022/11/02 06:53:39;;;;;;;;;;;;;;;;;;4956118;28;7079;-86
2022/11/02 06:56:05;;;;;;;;;;;;;;;;;;4956325;28;8428;-87
2022/11/02 06:58:30;;;;;;;;;;;;;;;;;;4956493;28;7407;-87
2022/11/02 07:01:00;;;;;;;;;;;;;;;;;;4956468;28;7154;-86
2022/11/02 07:03:26;;;;;;;;;;;;;;;;;;4955704;28;8585;-87
2022/11/02 07:05:53;;;;;;;;;;;;;;;;;;4954901;28;7046;-86
2022/11/02 07:08:19;;;;;;;;;;;;;;;;;;4956630;28;7178;-86
2022/11/02 07:10:45;;;;;;;;;;;;;;;;;;4954435;28;7262;-89
2022/11/02 07:13:11;;;;;;;;;;;;;;;;;;4955329;28;7200;-86
2022/11/02 07:15:37;;;;;;;;;;;;;;;;;;4955892;28;7320;-86
2022/11/02 07:18:04;;;;;;;;;;;;;;;;;;4956366;28;8316;-85
2022/11/02 07:20:31;;;;;;;;;;;;;;;;;;4972455;28;7058;-85
2022/11/02 07:22:58;;;;;;;;;;;;;;;;;;4975473;28;7503;-85
2022/11/02 07:25:25;;;;;;;;;;;;;;;;;;4975245;28;8697;-85
2022/11/02 07:27:51;;;;;;;;;;;;;;;;;;4974559;28;7050;-84
2022/11/02 07:30:18;;;;;;;;;;;;;;;;;;4973154;28;8405;-84
2022/11/02 07:32:44;;;;;;;;;;;;;;;;;;4973572;28;8403;-84
2022/11/02 07:35:11;;;;;;;;;;;;;;;;;;4973330;28;7164;-84
2022/11/02 07:37:37;;;;;;;;;;;;;;;;;;4973508;28;8302;-85
2022/11/02 07:40:04;;;;;;;;;;;;;;;;;;4973057;28;7143;-84
2022/11/02 07:42:30;;;;;;;;;;;;;;;;;;4973854;28;9325;-86
2022/11/02 07:44:55;;;;;;;;;;;;;;;;;;4975176;28;8400;-85
2022/11/02 07:47:21;;;;;;;;;;;;;;;;;;4974963;28;8358;-85
2022/11/02 07:49:46;;;;;;;;;;;;;;;;;;4974520;28;8310;-85
2022/11/02 07:52:12;;;;;;;;;;;;;;;;;;4974951;28;8405;-85
2022/11/02 07:54:37;;;;;;;;;;;;;;;;;;4974315;28;8500;-86
2022/11/02 07:57:02;;;;;;;;;;;;;;;;;;4974997;28;6835;-86
2022/11/02 07:59:28;;;;;;;;;;;;;;;;;;4975260;28;7154;-85
2022/11/02 08:01:54;;;;;;;;;;;;;;;;;;4974587;28;7162;-84
2022/11/02 08:04:19;;;;;;;;;;;;;;;;;;4974735;28;7959;-85
2022/11/02 08:06:45;;;;;;;;;;;;;;;;;;4974329;28;7015;-84
2022/11/02 08:09:10;;;;;;;;;;;;;;;;;;4974591;28;7033;-85
2022/11/02 08:11:36;;;;;;;;;;;;;;;;;;4974377;28;7247;-85
2022/11/02 08:14:01;;;;;;;;;;;;;;;;;;4975011;28;8373;-85
2022/11/02 08:16:28;;;;;;;;;;;;;;;;;;4974896;28;7064;-84
2022/11/02 08:18:53;;;;;;;;;;;;;;;;;;4978074;28;8392;-85
2022/11/02 08:21:19;;;;;;;;;;;;;;;;;;4978367;28;7058;-85
2022/11/02 08:23:45;;;;;;;;;;;;;;;;;;4978428;28;7947;-85
2022/11/02 08:26:11;;;;;;;;;;;;;;;;;;4978712;28;8536;-86
2022/11/02 08:28:39;;;;;;;;;;;;;;;;;;4978422;28;7027;-85
2022/11/02 08:31:06;;;;;;;;;;;;;;;;;;4978568;28;7246;-84
2022/11/02 08:33:32;;;;;;;;;;;;;;;;;;4978287;28;7144;-85
2022/11/02 08:36:04;;;;;;;;;;;;;;;;;;4975320;28;7129;-83
2022/11/02 08:38:30;;;;;;;;;;;;;;;;;;4972642;28;8496;-85
2022/11/02 08:40:56;;;;;;;;;;;;;;;;;;4957415;28;7159;-86
2022/11/02 08:43:21;;;;;;;;;;;;;;;;;;4958129;28;7068;-88
2022/11/02 08:45:47;;;;;;;;;;;;;;;;;;4958102;28;8524;-85
2022/11/02 08:48:13;;;;;;;;;;;;;;;;;;4957648;28;7260;-84
2022/11/02 08:50:39;;;;;;;;;;;;;;;;;;4953393;28;7217;-85
2022/11/02 08:53:05;;;;;;;;;;;;;;;;;;4939626;28;7059;-85
2022/11/02 08:55:31;;;;;;;;;;;;;;;;;;4958013;28;7088;-85
2022/11/02 08:57:57;;;;;;;;;;;;;;;;;;4958366;28;7012;-85
2022/11/02 09:00:28;;;;;;;;;;;;;;;;;;4957514;28;7213;-85
2022/11/02 09:03:01;;;;;;;;;;;;;;;;;;4957860;28;7064;-85
2022/11/02 09:05:27;;;;;;;;;;;;;;;;;;4958010;28;8685;-85
2022/11/02 09:07:54;;;;;;;;;;;;;;;;;;4958364;28;7225;-83
2022/11/02 09:10:19;;;;;;;;;;;;;;;;;;4957583;28;7007;-85
2022/11/02 09:12:45;;;;;;;;;;;;;;;;;;4957755;28;7109;-84
2022/11/02 09:15:10;;;;;;;;;;;;;;;;;;4957312;28;7043;-85
2022/11/02 09:17:36;;;;;;;;;;;;;;;;;;4957738;28;8420;-84
2022/11/02 09:20:01;;;;;;;;;;;;;;;;;;4957952;28;7056;-84
2022/11/02 09:22:26;;;;;;;;;;;;;;;;;;4957345;28;8621;-84
2022/11/02 09:24:52;;;;;;;;;;;;;;;;;;4958007;28;8496;-84
2022/11/02 09:27:17;;;;;;;;;;;;;;;;;;4957675;28;8329;-84
2022/11/02 09:29:43;;;;;;;;;;;;;;;;;;4954698;28;7014;-84
2022/11/02 09:32:08;;;;;;;;;;;;;;;;;;4956916;28;7039;-85
2022/11/02 09:34:34;;;;;;;;;;;;;;;;;;4957064;28;7066;-83
2022/11/02 09:36:59;;;;;;;;;;;;;;;;;;4956651;28;7394;-85
2022/11/02 09:39:25;;;;;;;;;;;;;;;;;;4970949;28;6977;-85
2022/11/02 09:42:01;;;;;;;;;;;;;;;;;;4956907;28;7085;-81
2022/11/02 09:44:49;;;;;;;;;;;;;;;;;;4957238;28;7298;-84
2022/11/02 09:47:16;;;;;;;;;;;;;;;;;;4972587;28;7182;-85
2022/11/02 09:49:43;;;;;;;;;;;;;;;;;;4973021;28;7412;-84
2022/11/02 09:52:15;;;;;;;;;;;;;;;;;;4972958;28;8337;-85
2022/11/02 09:54:48;;;;;;;;;;;;;;;;;;4972762;28;8642;-85
2022/11/02 09:57:16;;;;;;;;;;;;;;;;;;4972669;28;7074;-85
2022/11/02 09:59:41;;;;;;;;;;;;;;;;;;4979510;28;7100;-78
2022/11/02 10:02:25;;;;;;;;;;;;;;;;;;4976266;28;7103;-85
2022/11/02 10:05:12;;;;;;;;;;;;;;;;;;4976642;28;7296;-85
2022/11/02 10:07:43;;;;;;;;;;;;;;;;;;4981807;28;7430;-84
2022/11/02 10:10:09;;;;;;;;;;;;;;;;;;4987256;28;7233;-81
2022/11/02 10:12:40;;;;;;;;;;;;;;;;;;4978154;28;8614;-87
2022/11/02 10:15:28;;;;;;;;;;;;;;;;;;4975976;28;8393;-84
2022/11/02 10:17:57;;;;;;;;;;;;;;;;;;4975738;28;8461;-85
2022/11/02 10:20:36;;;;;;;;;;;;;;;;;;4975733;28;7135;-85
2022/11/02 10:23:06;;;;;;;;;;;;;;;;;;4966728;28;8733;-85
2022/11/02 10:25:34;;;;;;;;;;;;;;;;;;4972055;28;7257;-84
2022/11/02 10:28:09;;;;;;;;;;;;;;;;;;4971871;28;7251;-84
2022/11/02 10:30:36;;;;;;;;;;;;;;;;;;4951057;28;8421;-84
2022/11/02 10:33:09;;;;;;;;;;;;;;;;;;4954917;28;7198;-85
2022/11/02 10:35:46;;;;;;;;;;;;;;;;;;4956820;28;8374;-85
2022/11/02 10:38:26;;;;;;;;;;;;;;;;;;4955734;28;8442;-86
2022/11/02 10:41:06;;;;;;;;;;;;;;;;;;4955080;28;8759;-86
2022/11/02 10:43:35;;;;;;;;;;;;;;;;;;4954167;28;7420;-84
2022/11/02 10:46:04;;;;;;;;;;;;;;;;;;4954661;28;8525;-85
2022/11/02 10:48:35;;;;;;;;;;;;;;;;;;4955958;28;7533;-86
2022/11/02 10:51:08;;;;;;;;;;;;;;;;;;4955439;28;8404;-87
2022/11/02 10:53:37;;;;;;;;;;;;;;;;;;4955729;28;7190;-87
2022/11/02 10:56:06;;;;;;;;;;;;;;;;;;4955880;28;8078;-87
2022/11/02 10:58:32;;;;;;;;;;;;;;;;;;4956087;28;8421;-86
2022/11/02 11:01:06;;;;;;;;;;;;;;;;;;4954629;28;8788;-84
2022/11/02 11:03:31;;;;;;;;;;;;;;;;;;4955701;28;8413;-85
2022/11/02 11:06:02;;;;;;;;;;;;;;;;;;4955488;28;8679;-85
2022/11/02 11:08:37;;;;;;;;;;;;;;;;;;4955758;28;7190;-86
2022/11/02 11:11:10;;;;;;;;;;;;;;;;;;4955510;28;7048;-85
2022/11/02 11:13:36;;;;;;;;;;;;;;;;;;4955104;28;7036;-86
2022/11/02 11:16:05;;;;;;;;;;;;;;;;;;4954528;28;8531;-86
2022/11/02 11:18:31;;;;;;;;;;;;;;;;;;4954625;28;7016;-86
2022/11/02 11:20:58;;;;;;;;;;;;;;;;;;4955258;28;6867;-86
2022/11/02 11:23:24;;;;;;;;;;;;;;;;;;4954746;28;8458;-85
2022/11/02 11:25:58;;;;;;;;;;;;;;;;;;4954931;28;8618;-84
2022/11/02 11:28:27;;;;;;;;;;;;;;;;;;4953688;28;7045;-85
2022/11/02 11:31:01;;;;;;;;;;;;;;;;;;4953291;28;8748;-84
2022/11/02 11:33:29;;;;;;;;;;;;;;;;;;4955580;28;9165;-85
2022/11/02 11:35:55;;;;;;;;;;;;;;;;;;4956015;28;7268;-86
2022/11/02 11:38:23;;;;;;;;;;;;;;;;;;4957369;28;8445;-86
2022/11/02 11:40:53;;;;;;;;;;;;;;;;;;4952708;28;7072;-85
2022/11/02 11:43:21;;;;;;;;;;;;;;;;;;4936895;29;8492;-80
2022/11/02 11:46:01;;;;;;;;;;;;;;;;;;4935876;29;7055;-86
2022/11/02 11:48:35;;;;;;;;;;;;;;;;;;4936390;29;8414;-85
2022/11/02 11:51:02;;;;;;;;;;;;;;;;;;4935460;29;7904;-84
2022/11/02 11:53:28;;;;;;;;;;;;;;;;;;4935033;29;7423;-86
2022/11/02 11:55:59;;;;;;;;;;;;;;;;;;4935055;29;8469;-85
2022/11/02 11:58:29;;;;;;;;;;;;;;;;;;4935641;29;7213;-85
2022/11/02 12:01:06;;;;;;;;;;;;;;;;;;4935389;29;8447;-86
2022/11/02 12:03:32;;;;;;;;;;;;;;;;;;4935830;29;7470;-86
2022/11/02 12:06:01;;;;;;;;;;;;;;;;;;4935225;29;7054;-86
2022/11/02 12:08:29;;;;;;;;;;;;;;;;;;4936462;29;8710;-84
2022/11/02 12:11:12;;;;;;;;;;;;;;;;;;4934810;29;7319;-84
2022/11/02 12:13:40;;;;;;;;;;;;;;;;;;4935718;29;8391;-86
2022/11/02 12:16:06;;;;;;;;;;;;;;;;;;4935333;29;8872;-86
2022/11/02 12:18:37;;;;;;;;;;;;;;;;;;4935628;29;7178;-85
2022/11/02 12:21:11;;;;;;;;;;;;;;;;;;4935183;29;7165;-85
2022/11/02 12:23:55;;;;;;;;;;;;;;;;;;4935534;29;7175;-85
2022/11/02 12:26:36;;;;;;;;;;;;;;;;;;4935245;29;7080;-86
2022/11/02 12:29:20;;;;;;;;;;;;;;;;;;4935381;29;8557;-86
2022/11/02 12:31:56;;;;;;;;;;;;;;;;;;4950660;29;7173;-86
2022/11/02 12:34:44;;;;;;;;;;;;;;;;;;4954720;29;7064;-87
2022/11/02 12:37:22;;;;;;;;;;;;;;;;;;4954068;29;7243;-86
2022/11/02 12:39:47;;;;;;;;;;;;;;;;;;4954975;28;6814;-85
2022/11/02 12:42:25;;;;;;;;;;;;;;;;;;4954320;29;8510;-87
2022/11/02 12:44:54;;;;;;;;;;;;;;;;;;4953931;29;7363;-86
2022/11/02 12:47:29;;;;;;;;;;;;;;;;;;4954395;29;7304;-86
2022/11/02 12:50:17;;;;;;;;;;;;;;;;;;4954481;29;8445;-86
2022/11/02 12:52:46;;;;;;;;;;;;;;;;;;4954499;29;8605;-85
2022/11/02 12:55:15;;;;;;;;;;;;;;;;;;4954104;29;7196;-85
2022/11/02 12:57:41;;;;;;;;;;;;;;;;;;4954583;28;7125;-86
2022/11/02 13:00:17;;;;;;;;;;;;;;;;;;4953773;28;7190;-86
2022/11/02 13:03:01;;;;;;;;;;;;;;;;;;4954147;28;7185;-85
2022/11/02 13:05:33;;;;;;;;;;;;;;;;;;4957463;28;8388;-86
2022/11/02 13:08:07;;;;;;;;;;;;;;;;;;4958130;28;7227;-86
2022/11/02 13:10:46;;;;;;;;;;;;;;;;;;4957913;28;8499;-84
2022/11/02 13:13:38;;;;;;;;;;;;;;;;;;4957265;28;8720;-87
2022/11/02 13:16:07;;;;;;;;;;;;;;;;;;4953413;28;7139;-85
2022/11/02 13:18:45;;;;;;;;;;;;;;;;;;4956424;28;8666;-85
2022/11/02 13:21:13;;;;;;;;;;;;;;;;;;4955316;28;7051;-85
2022/11/02 13:23:43;;;;;;;;;;;;;;;;;;4956182;28;8446;-85
2022/11/02 13:26:31;;;;;;;;;;;;;;;;;;4965934;28;8623;-84
2022/11/02 13:28:56;;;;;;;;;;;;;;;;;;4952518;28;7205;-85
2022/11/02 13:31:42;;;;;;;;;;;;;;;;;;4956072;28;8460;-79
2022/11/02 13:34:12;;;;;;;;;;;;;;;;;;4972256;28;7231;-77
2022/11/02 13:36:38;;;;;;;;;;;;;;;;;;4956777;28;8535;-85
2022/11/02 13:39:13;;;;;;;;;;;;;;;;;;4957120;28;7187;-87
2022/11/02 13:41:57;;;;;;;;;;;;;;;;;;4956326;28;8114;-86
2022/11/02 13:44:25;;;;;;;;;;;;;;;;;;4957894;28;7119;-87
2022/11/02 13:47:03;;;;;;;;;;;;;;;;;;4957641;28;7148;-87
2022/11/02 13:49:34;;;;;;;;;;;;;;;;;;4958435;28;7271;-86
2022/11/02 13:52:02;;;;;;;;;;;;;;;;;;4957820;28;8413;-88
2022/11/02 13:54:51;;;;;;;;;;;;;;;;;;4956557;28;7180;-87
2022/11/02 13:57:35;;;;;;;;;;;;;;;;;;4963189;28;8442;-87
2022/11/02 14:00:03;;;;;;;;;;;;;;;;;;4957318;28;8433;-85
2022/11/02 14:02:34;;;;;;;;;;;;;;;;;;4957510;28;8351;-87
2022/11/02 14:05:01;;;;;;;;;;;;;;;;;;4957757;28;8514;-86
2022/11/02 14:07:39;;;;;;;;;;;;;;;;;;4957407;28;7079;-88
2022/11/02 14:10:10;;;;;;;;;;;;;;;;;;4957377;28;7056;-86
2022/11/02 14:12:42;;;;;;;;;;;;;;;;;;4957069;28;8520;-88
2022/11/02 14:15:13;;;;;;;;;;;;;;;;;;4956756;28;8505;-88
2022/11/02 14:17:55;;;;;;;;;;;;;;;;;;4957337;28;7374;-89
2022/11/02 14:20:34;;;;;;;;;;;;;;;;;;4956461;28;8531;-87
2022/11/02 14:23:17;;;;;;;;;;;;;;;;;;4956638;28;7031;-88
2022/11/02 14:25:59;;;;;;;;;;;;;;;;;;4957587;28;8714;-88
2022/11/02 14:28:32;;;;;;;;;;;;;;;;;;4958134;28;7036;-88
2022/11/02 14:31:04;;;;;;;;;;;;;;;;;;4957239;28;8579;-89
2022/11/02 14:33:45;;;;;;;;;;;;;;;;;;4957464;28;8404;-89
2022/11/02 14:36:16;;;;;;;;;;;;;;;;;;4956922;28;8413;-89
2022/11/02 14:39:17;;;;;;;;;;;;;;;;;;4957013;28;7184;-89
2022/11/02 14:41:45;;;;;;;;;;;;;;;;;;4900199;29;7061;-88
2022/11/02 14:44:40;;;;;;;;;;;;;;;;;;4897663;29;8541;-89
2022/11/02 14:47:12;;;;;;;;;;;;;;;;;;4897111;29;7065;-88
2022/11/02 14:49:50;;;;;;;;;;;;;;;;;;4897599;29;8745;-88
2022/11/02 14:52:24;;;;;;;;;;;;;;;;;;4897999;29;7017;-88
2022/11/02 14:54:58;;;;;;;;;;;;;;;;;;4898730;29;7056;-88
2022/11/02 14:57:34;;;;;;;;;;;;;;;;;;4916041;29;8760;-89
2022/11/02 15:00:17;;;;;;;;;;;;;;;;;;4915549;29;8490;-88
2022/11/02 15:02:44;;;;;;;;;;;;;;;;;;4917160;29;8471;-88
2022/11/02 15:05:21;;;;;;;;;;;;;;;;;;4917256;29;7376;-87
2022/11/02 15:07:51;;;;;;;;;;;;;;;;;;4917348;29;7076;-86
2022/11/02 15:10:16;;;;;;;;;;;;;;;;;;4916713;29;8443;-87
2022/11/02 15:12:44;;;;;;;;;;;;;;;;;;4916871;29;7066;-87
2022/11/02 15:15:25;;;;;;;;;;;;;;;;;;4935599;28;8449;-87
2022/11/02 15:17:52;;;;;;;;;;;;;;;;;;4975393;28;8423;-88
2022/11/02 15:20:27;;;;;;;;;;;;;;;;;;4975041;28;7426;-88
2022/11/02 15:22:56;;;;;;;;;;;;;;;;;;4975369;28;7095;-89
2022/11/02 15:25:27;;;;;;;;;;;;;;;;;;4975037;28;8453;-88
2022/11/02 15:27:56;;;;;;;;;;;;;;;;;;4975644;28;7241;-89
2022/11/02 15:30:22;;;;;;;;;;;;;;;;;;4975042;28;7206;-89
2022/11/02 15:32:51;;;;;;;;;;;;;;;;;;4975316;28;8447;-89
2022/11/02 15:35:23;;;;;;;;;;;;;;;;;;4975782;28;8424;-89
2022/11/02 15:37:55;;;;;;;;;;;;;;;;;;4975161;28;7525;-88
2022/11/02 15:40:28;;;;;;;;;;;;;;;;;;4975734;28;7048;-90
2022/11/02 15:42:59;;;;;;;;;;;;;;;;;;4974611;28;8618;-88
2022/11/02 15:45:40;;;;;;;;;;;;;;;;;;4964894;28;7023;-89
2022/11/02 15:48:22;;;;;;;;;;;;;;;;;;4955886;28;7032;-89
2022/11/02 15:51:14;;;;;;;;;;;;;;;;;;4952718;28;8418;-88
2022/11/02 15:53:49;;;;;;;;;;;;;;;;;;4932014;28;7160;-89
2022/11/02 15:56:33;;;;;;;;;;;;;;;;;;4955336;28;8454;-89
2022/11/02 15:59:04;;;;;;;;;;;;;;;;;;4954243;28;7052;-89
2022/11/02 16:01:30;;;;;;;;;;;;;;;;;;4968456;28;8514;-90
2022/11/02 16:04:05;;;;;;;;;;;;;;;;;;4952413;28;8351;-87
2022/11/02 16:06:33;;;;;;;;;;;;;;;;;;4951066;28;8335;-89
2022/11/02 16:09:00;;;;;;;;;;;;;;;;;;4953015;29;7035;-88
2022/11/02 16:11:28;;;;;;;;;;;;;;;;;;4951720;29;7024;-88
2022/11/02 16:14:13;;;;;;;;;;;;;;;;;;4952227;29;7360;-88
2022/11/02 16:16:46;;;;;;;;;;;;;;;;;;4952213;29;7060;-88
2022/11/02 16:19:19;;;;;;;;;;;;;;;;;;4953662;29;7028;-89
2022/11/02 16:21:45;;;;;;;;;;;;;;;;;;4952335;29;7303;-89
2022/11/02 16:24:11;;;;;;;;;;;;;;;;;;4952069;29;7233;-89
2022/11/02 16:26:37;;;;;;;;;;;;;;;;;;4951811;29;7095;-90
2022/11/02 16:29:07;;;;;;;;;;;;;;;;;;4952127;29;7085;-90
2022/11/02 16:31:33;;;;;;;;;;;;;;;;;;4976262;28;7061;-90
2022/11/02 16:34:14;;;;;;;;;;;;;;;;;;4975148;28;8507;-89
2022/11/02 16:36:40;;;;;;;;;;;;;;;;;;4975607;28;7007;-89
2022/11/02 16:41:09;;;;;;;;;;;;;;;;;;5073207;28;6592;-64
2022/11/02 16:44:10;;;;;;;;;;;;;;;;;;5052114;28;7126;-64
2022/11/02 16:53:01;;;;;;;;;;;;;;;;;;5051768;28;6803;-63
2022/11/02 16:55:57;;;;;;;;;;;;;;;;;;5051811;28;7250;-63
2022/11/02 16:58:52;;;;;;;;;;;;;;;;;;5052427;28;6974;-63
2022/11/02 17:01:33;;;;;;;;;;;;;;;;;;5051747;28;6975;-63
2022/11/02 17:04:23;;;;;;;;;;;;;;;;;;5051646;28;7297;-63
2022/11/02 17:10:14;;;;;;;;;;;;;;;;;;5051285;28;6699;-63
2022/11/02 17:12:49;;;;;;;;;;;;;;;;;;5051612;28;7202;-63
2022/11/02 17:15:31;;;;;;;;;;;;;;;;;;5051474;28;7017;-63
2022/11/02 17:29:53;;;;;;;;;;;;;;;;;;5051107;28;7087;-63
2022/11/02 17:32:20;;;;;;;;;;;;;;;;;;5050821;28;8391;-63
2022/11/02 17:37:41;;;;;;;;;;;;;;;;;;5051454;28;6970;-63
2022/11/02 17:40:09;;;;;;;;;;;;;;;;;;5058123;28;7317;-63
2022/11/02 17:45:30;;;;;;;;;;;;;;;;;;5071209;28;6933;-63
2022/11/02 17:47:57;;;;;;;;;;;;;;;;;;5070584;28;7193;-63
2022/11/02 17:50:24;;;;;;;;;;;;;;;;;;5069871;28;7262;-63
2022/11/02 17:52:53;;;;;;;;;;;;;;;;;;5057244;28;7018;-63
2022/11/02 17:55:31;;;;;;;;;;;;;;;;;;5057060;28;8021;-64
2022/11/02 17:57:58;;;;;;;;;;;;;;;;;;5058162;28;7152;-63
2022/11/02 18:00:24;;;;;;;;;;;;;;;;;;5057217;28;7046;-63
2022/11/02 18:02:51;;;;;;;;;;;;;;;;;;5057148;28;6990;-63
2022/11/02 18:09:09;;;;;;;;;;;;;;;;;;5056950;28;6701;-63
2022/11/02 18:11:39;;;;;;;;;;;;;;;;;;5057237;28;7001;-64